Walker Valley, NY (12588)

5:40 PM EDT on July 30, 2016 (GMT -0400)
Ice Caves Mountain | | Change Station

Elev 1509 ft 41.66 °N, 74.38 °W | Updated 3 minutes ago

Heavy Rain
Heavy Rain Mist
69.8 °F
Feels Like 69.8 °F
N
3.2
Wind Variable Wind from South

Today
High -- | Low -- °F
--% Chance of Precip.
Yesterday
High -- | Low -- °F
Precip. -- in
Pressure 30.04 in
Visibility 1.0 miles
Clouds Scattered Clouds 600 ft
Mostly Cloudy 3400 ft
Overcast 4200 ft
Dew Point 65 °F
Humidity 86%
Rainfall 0.09 in
Snow Depth Not available.
5:50 AM 8:16 PM
Waning Crescent, 11% visible
SPECI KMGJ 302135Z AUTO 15003KT 1SM +RA BR SCT006 BKN034 OVC042 22/21 A3004 RMK AO2 P0016 T02220211 TSNO $
Pressure 30.04 in
Visibility 1.0 miles
Clouds Scattered Clouds 600 ft
Mostly Cloudy 3400 ft
Overcast 4200 ft
Dew Point 65 °F
Humidity 86%
Rainfall 0.09 in
Snow Depth Not available.
5:50 AM 8:16 PM
Waning Crescent, 11% visible
SPECI KMGJ 302135Z AUTO 15003KT 1SM +RA BR SCT006 BKN034 OVC042 22/21 A3004 RMK AO2 P0016 T02220211 TSNO $

10-Day Weather Forecast

Almanac

Astronomy

Jul. 30, 2016 Rise Set
Actual Time
Civil Twilight
Nautical Twilight
Astronomical Twilight
Moon
Length of Visible Light
Length of Day
Tomorrow will be .
, % of the Moon is Illuminated

Today's Extremes

State Highs State Lows

Community

WunderPhotos

Upload Photos

1,928,654 photos uploaded!

WunderBlog® & News

Nearby

Air Quality

  Air Quality AQ Index Pollutant
Not available.

Snow Depth

Station Depth Elevation

Earthquake Activity

City Distance Mag. Time & Date
Minimum magnitude displayed is 2.5.

Coastal Water Temperatures

Place Temperature

Stations

Nearby Weather Stations

Station Location Temp. Windchill Dew Point Humidity Wind Precip. Elev Updated Type
                   

Watches & Warnings

There are currently no watches in effect.